sensor_id;sensor_type;location;lat;lon;timestamp;temperature;humidity
6672;DHT22;3372;48.690;12.362;2022-11-20T00:00:54;5.40;87.60
6672;DHT22;3372;48.690;12.362;2022-11-20T00:03:20;5.50;87.50
6672;DHT22;3372;48.690;12.362;2022-11-20T00:05:45;5.50;87.20
6672;DHT22;3372;48.690;12.362;2022-11-20T00:08:11;5.60;89.40
6672;DHT22;3372;48.690;12.362;2022-11-20T00:10:38;5.80;88.90
6672;DHT22;3372;48.690;12.362;2022-11-20T00:13:04;5.80;88.30
6672;DHT22;3372;48.690;12.362;2022-11-20T00:15:30;5.60;88.10
6672;DHT22;3372;48.690;12.362;2022-11-20T00:17:55;5.70;88.10
6672;DHT22;3372;48.690;12.362;2022-11-20T00:20:21;5.70;86.10
6672;DHT22;3372;48.690;12.362;2022-11-20T00:22:47;5.70;86.60
6672;DHT22;3372;48.690;12.362;2022-11-20T00:25:13;5.70;86.50
6672;DHT22;3372;48.690;12.362;2022-11-20T00:27:39;5.70;86.70
6672;DHT22;3372;48.690;12.362;2022-11-20T00:30:05;5.70;85.90
6672;DHT22;3372;48.690;12.362;2022-11-20T00:32:31;5.90;85.90
6672;DHT22;3372;48.690;12.362;2022-11-20T00:34:56;5.60;86.50
6672;DHT22;3372;48.690;12.362;2022-11-20T00:37:22;5.60;87.20
6672;DHT22;3372;48.690;12.362;2022-11-20T00:39:48;6.10;87.40
6672;DHT22;3372;48.690;12.362;2022-11-20T00:42:13;6.00;86.20
6672;DHT22;3372;48.690;12.362;2022-11-20T00:44:39;6.00;85.50
6672;DHT22;3372;48.690;12.362;2022-11-20T00:47:04;6.00;84.80
6672;DHT22;3372;48.690;12.362;2022-11-20T00:49:30;5.80;84.20
6672;DHT22;3372;48.690;12.362;2022-11-20T00:51:56;5.80;85.40
6672;DHT22;3372;48.690;12.362;2022-11-20T00:54:21;5.90;85.30
6672;DHT22;3372;48.690;12.362;2022-11-20T00:56:47;5.70;86.40
6672;DHT22;3372;48.690;12.362;2022-11-20T00:59:12;5.80;86.30
6672;DHT22;3372;48.690;12.362;2022-11-20T01:01:38;5.80;86.40
6672;DHT22;3372;48.690;12.362;2022-11-20T01:04:04;5.90;87.20
6672;DHT22;3372;48.690;12.362;2022-11-20T01:06:35;5.80;86.20
6672;DHT22;3372;48.690;12.362;2022-11-20T01:09:09;6.00;85.70
6672;DHT22;3372;48.690;12.362;2022-11-20T01:11:36;5.80;86.60
6672;DHT22;3372;48.690;12.362;2022-11-20T01:14:05;5.80;86.70
6672;DHT22;3372;48.690;12.362;2022-11-20T01:16:34;5.60;86.80
6672;DHT22;3372;48.690;12.362;2022-11-20T01:19:03;5.30;86.20
6672;DHT22;3372;48.690;12.362;2022-11-20T01:21:32;5.70;87.10
6672;DHT22;3372;48.690;12.362;2022-11-20T01:23:59;5.70;86.90
6672;DHT22;3372;48.690;12.362;2022-11-20T01:26:27;5.90;86.10
6672;DHT22;3372;48.690;12.362;2022-11-20T01:28:54;5.70;85.50
6672;DHT22;3372;48.690;12.362;2022-11-20T01:31:23;5.80;85.40
6672;DHT22;3372;48.690;12.362;2022-11-20T01:33:51;5.80;84.80
6672;DHT22;3372;48.690;12.362;2022-11-20T01:36:19;6.10;85.00
6672;DHT22;3372;48.690;12.362;2022-11-20T01:38:45;5.90;84.30
6672;DHT22;3372;48.690;12.362;2022-11-20T01:41:12;5.80;85.60
6672;DHT22;3372;48.690;12.362;2022-11-20T01:43:57;5.50;85.70
6672;DHT22;3372;48.690;12.362;2022-11-20T01:46:23;5.80;85.90
6672;DHT22;3372;48.690;12.362;2022-11-20T01:48:57;5.60;85.30
6672;DHT22;3372;48.690;12.362;2022-11-20T01:51:35;5.80;86.20
6672;DHT22;3372;48.690;12.362;2022-11-20T01:54:06;6.00;85.80
6672;DHT22;3372;48.690;12.362;2022-11-20T01:56:36;5.70;84.70
6672;DHT22;3372;48.690;12.362;2022-11-20T01:59:05;5.90;86.20
6672;DHT22;3372;48.690;12.362;2022-11-20T02:01:31;5.80;84.80
6672;DHT22;3372;48.690;12.362;2022-11-20T02:03:58;5.70;85.50
6672;DHT22;3372;48.690;12.362;2022-11-20T02:06:27;5.90;85.00
6672;DHT22;3372;48.690;12.362;2022-11-20T02:08:54;5.80;84.10
6672;DHT22;3372;48.690;12.362;2022-11-20T02:11:20;6.00;84.70
6672;DHT22;3372;48.690;12.362;2022-11-20T02:13:46;6.20;84.90
6672;DHT22;3372;48.690;12.362;2022-11-20T02:16:19;6.10;84.50
6672;DHT22;3372;48.690;12.362;2022-11-20T02:18:46;5.90;83.70
6672;DHT22;3372;48.690;12.362;2022-11-20T02:24:14;6.00;83.50
6672;DHT22;3372;48.690;12.362;2022-11-20T02:26:59;6.00;84.00
6672;DHT22;3372;48.690;12.362;2022-11-20T02:29:39;6.20;84.20
6672;DHT22;3372;48.690;12.362;2022-11-20T02:32:05;5.90;83.30
6672;DHT22;3372;48.690;12.362;2022-11-20T02:34:31;6.10;83.10
6672;DHT22;3372;48.690;12.362;2022-11-20T02:36:58;6.10;83.80
6672;DHT22;3372;48.690;12.362;2022-11-20T02:39:26;6.10;83.70
6672;DHT22;3372;48.690;12.362;2022-11-20T02:41:56;6.30;84.00
6672;DHT22;3372;48.690;12.362;2022-11-20T02:44:22;6.40;83.90
6672;DHT22;3372;48.690;12.362;2022-11-20T02:46:48;6.10;83.70
6672;DHT22;3372;48.690;12.362;2022-11-20T02:49:13;6.20;83.70
6672;DHT22;3372;48.690;12.362;2022-11-20T02:51:39;6.10;84.50
6672;DHT22;3372;48.690;12.362;2022-11-20T02:54:04;6.20;84.40
6672;DHT22;3372;48.690;12.362;2022-11-20T02:56:30;6.20;84.40
6672;DHT22;3372;48.690;12.362;2022-11-20T02:58:56;6.30;84.90
6672;DHT22;3372;48.690;12.362;2022-11-20T03:01:22;6.40;85.40
6672;DHT22;3372;48.690;12.362;2022-11-20T03:03:47;6.30;85.00
6672;DHT22;3372;48.690;12.362;2022-11-20T03:06:15;6.20;85.50
6672;DHT22;3372;48.690;12.362;2022-11-20T03:08:41;6.20;86.00
6672;DHT22;3372;48.690;12.362;2022-11-20T03:11:08;6.40;86.60
6672;DHT22;3372;48.690;12.362;2022-11-20T03:13:34;6.30;86.30
6672;DHT22;3372;48.690;12.362;2022-11-20T03:16:08;6.40;86.20
6672;DHT22;3372;48.690;12.362;2022-11-20T03:18:33;6.20;87.00
6672;DHT22;3372;48.690;12.362;2022-11-20T03:20:59;6.30;87.10
6672;DHT22;3372;48.690;12.362;2022-11-20T03:23:25;6.30;88.20
6672;DHT22;3372;48.690;12.362;2022-11-20T03:25:51;6.50;87.70
6672;DHT22;3372;48.690;12.362;2022-11-20T03:28:16;6.20;89.10
6672;DHT22;3372;48.690;12.362;2022-11-20T03:30:42;6.30;90.00
6672;DHT22;3372;48.690;12.362;2022-11-20T03:33:07;6.30;90.10
6672;DHT22;3372;48.690;12.362;2022-11-20T03:35:33;6.30;90.10
6672;DHT22;3372;48.690;12.362;2022-11-20T03:37:59;6.40;90.20
6672;DHT22;3372;48.690;12.362;2022-11-20T03:40:24;6.50;90.50
6672;DHT22;3372;48.690;12.362;2022-11-20T03:42:50;6.30;90.20
6672;DHT22;3372;48.690;12.362;2022-11-20T03:45:17;6.50;91.00
6672;DHT22;3372;48.690;12.362;2022-11-20T03:47:43;6.40;90.50
6672;DHT22;3372;48.690;12.362;2022-11-20T03:50:11;6.40;90.20
6672;DHT22;3372;48.690;12.362;2022-11-20T03:52:38;6.70;90.20
6672;DHT22;3372;48.690;12.362;2022-11-20T03:55:05;6.60;90.20
6672;DHT22;3372;48.690;12.362;2022-11-20T03:57:30;6.70;90.20
6672;DHT22;3372;48.690;12.362;2022-11-20T03:59:56;6.60;90.20
6672;DHT22;3372;48.690;12.362;2022-11-20T04:02:22;6.70;90.10
6672;DHT22;3372;48.690;12.362;2022-11-20T04:04:47;6.50;90.00
6672;DHT22;3372;48.690;12.362;2022-11-20T04:07:13;6.80;90.70
6672;DHT22;3372;48.690;12.362;2022-11-20T04:09:38;6.60;90.20
6672;DHT22;3372;48.690;12.362;2022-11-20T04:12:04;6.80;90.70
6672;DHT22;3372;48.690;12.362;2022-11-20T04:14:30;6.60;90.30
6672;DHT22;3372;48.690;12.362;2022-11-20T04:16:55;6.40;90.10
6672;DHT22;3372;48.690;12.362;2022-11-20T04:19:21;6.70;90.70
6672;DHT22;3372;48.690;12.362;2022-11-20T04:21:46;6.70;91.10
6672;DHT22;3372;48.690;12.362;2022-11-20T04:24:12;6.80;91.00
6672;DHT22;3372;48.690;12.362;2022-11-20T04:26:38;7.00;90.90
6672;DHT22;3372;48.690;12.362;2022-11-20T04:29:04;7.00;90.70
6672;DHT22;3372;48.690;12.362;2022-11-20T04:31:32;7.00;90.30
6672;DHT22;3372;48.690;12.362;2022-11-20T04:34:06;6.90;90.30
6672;DHT22;3372;48.690;12.362;2022-11-20T04:36:32;6.80;90.40
6672;DHT22;3372;48.690;12.362;2022-11-20T04:39:03;7.00;90.20
6672;DHT22;3372;48.690;12.362;2022-11-20T04:41:34;6.90;90.30
6672;DHT22;3372;48.690;12.362;2022-11-20T04:44:02;7.10;90.30
6672;DHT22;3372;48.690;12.362;2022-11-20T04:46:30;6.90;90.20
6672;DHT22;3372;48.690;12.362;2022-11-20T04:48:56;6.90;90.40
6672;DHT22;3372;48.690;12.362;2022-11-20T04:51:22;6.90;90.60
6672;DHT22;3372;48.690;12.362;2022-11-20T04:53:48;7.00;90.40
6672;DHT22;3372;48.690;12.362;2022-11-20T04:56:14;7.00;90.80
6672;DHT22;3372;48.690;12.362;2022-11-20T04:58:39;7.00;90.80
6672;DHT22;3372;48.690;12.362;2022-11-20T05:01:17;7.10;90.70
6672;DHT22;3372;48.690;12.362;2022-11-20T05:03:43;7.00;90.80
6672;DHT22;3372;48.690;12.362;2022-11-20T05:06:12;7.20;90.80
6672;DHT22;3372;48.690;12.362;2022-11-20T05:08:38;6.90;90.40
6672;DHT22;3372;48.690;12.362;2022-11-20T05:11:10;7.00;90.40
6672;DHT22;3372;48.690;12.362;2022-11-20T05:13:37;7.00;90.60
6672;DHT22;3372;48.690;12.362;2022-11-20T05:16:14;6.90;90.80
6672;DHT22;3372;48.690;12.362;2022-11-20T05:18:41;7.10;90.90
6672;DHT22;3372;48.690;12.362;2022-11-20T05:21:07;7.10;90.90
6672;DHT22;3372;48.690;12.362;2022-11-20T05:23:34;7.10;90.90
6672;DHT22;3372;48.690;12.362;2022-11-20T05:26:00;7.20;90.80
6672;DHT22;3372;48.690;12.362;2022-11-20T05:28:27;7.20;91.20
6672;DHT22;3372;48.690;12.362;2022-11-20T05:30:54;7.00;91.90
6672;DHT22;3372;48.690;12.362;2022-11-20T05:33:20;7.10;92.00
6672;DHT22;3372;48.690;12.362;2022-11-20T05:35:46;6.90;91.90
6672;DHT22;3372;48.690;12.362;2022-11-20T05:38:11;7.10;91.80
6672;DHT22;3372;48.690;12.362;2022-11-20T05:40:37;7.30;91.80
6672;DHT22;3372;48.690;12.362;2022-11-20T05:43:03;7.10;92.10
6672;DHT22;3372;48.690;12.362;2022-11-20T05:45:28;7.20;92.10
6672;DHT22;3372;48.690;12.362;2022-11-20T05:47:58;7.10;91.70
6672;DHT22;3372;48.690;12.362;2022-11-20T05:50:24;7.40;91.60
6672;DHT22;3372;48.690;12.362;2022-11-20T05:52:50;7.20;91.30
6672;DHT22;3372;48.690;12.362;2022-11-20T05:55:15;7.20;91.30
6672;DHT22;3372;48.690;12.362;2022-11-20T05:57:41;7.30;91.30
6672;DHT22;3372;48.690;12.362;2022-11-20T06:00:07;7.20;91.30
6672;DHT22;3372;48.690;12.362;2022-11-20T06:02:34;7.20;90.80
6672;DHT22;3372;48.690;12.362;2022-11-20T06:05:01;7.30;90.90
6672;DHT22;3372;48.690;12.362;2022-11-20T06:07:26;7.30;90.80
6672;DHT22;3372;48.690;12.362;2022-11-20T06:09:52;7.30;91.00
6672;DHT22;3372;48.690;12.362;2022-11-20T06:12:18;7.20;90.90
6672;DHT22;3372;48.690;12.362;2022-11-20T06:14:43;7.40;91.10
6672;DHT22;3372;48.690;12.362;2022-11-20T06:17:09;7.20;91.20
6672;DHT22;3372;48.690;12.362;2022-11-20T06:19:34;7.20;91.40
6672;DHT22;3372;48.690;12.362;2022-11-20T06:22:00;7.30;91.90
6672;DHT22;3372;48.690;12.362;2022-11-20T06:24:25;7.20;92.30
6672;DHT22;3372;48.690;12.362;2022-11-20T06:26:51;7.40;92.40
6672;DHT22;3372;48.690;12.362;2022-11-20T06:29:17;7.40;92.80
6672;DHT22;3372;48.690;12.362;2022-11-20T06:31:44;7.20;92.80
6672;DHT22;3372;48.690;12.362;2022-11-20T06:34:11;7.40;92.80
6672;DHT22;3372;48.690;12.362;2022-11-20T06:36:36;7.50;92.60
6672;DHT22;3372;48.690;12.362;2022-11-20T06:39:03;7.00;92.70
6672;DHT22;3372;48.690;12.362;2022-11-20T06:41:29;7.30;93.30
6672;DHT22;3372;48.690;12.362;2022-11-20T06:43:54;7.30;92.80
6672;DHT22;3372;48.690;12.362;2022-11-20T06:46:20;7.40;93.30
6672;DHT22;3372;48.690;12.362;2022-11-20T06:48:47;7.30;93.20
6672;DHT22;3372;48.690;12.362;2022-11-20T06:51:13;7.20;93.20
6672;DHT22;3372;48.690;12.362;2022-11-20T06:53:39;7.30;92.90
6672;DHT22;3372;48.690;12.362;2022-11-20T06:56:05;7.30;93.10
6672;DHT22;3372;48.690;12.362;2022-11-20T06:58:33;7.30;92.60
6672;DHT22;3372;48.690;12.362;2022-11-20T07:01:07;7.30;92.40
6672;DHT22;3372;48.690;12.362;2022-11-20T07:03:34;7.60;92.70
6672;DHT22;3372;48.690;12.362;2022-11-20T07:06:00;7.30;92.50
6672;DHT22;3372;48.690;12.362;2022-11-20T07:08:26;7.60;92.40
6672;DHT22;3372;48.690;12.362;2022-11-20T07:10:52;7.50;92.20
6672;DHT22;3372;48.690;12.362;2022-11-20T07:13:18;7.40;92.10
6672;DHT22;3372;48.690;12.362;2022-11-20T07:15:43;7.40;92.10
6672;DHT22;3372;48.690;12.362;2022-11-20T07:18:09;7.40;92.00
6672;DHT22;3372;48.690;12.362;2022-11-20T07:20:35;7.40;91.90
6672;DHT22;3372;48.690;12.362;2022-11-20T07:23:00;7.50;91.80
6672;DHT22;3372;48.690;12.362;2022-11-20T07:25:27;7.50;91.70
6672;DHT22;3372;48.690;12.362;2022-11-20T07:27:56;7.60;91.40
6672;DHT22;3372;48.690;12.362;2022-11-20T07:30:21;7.60;91.70
6672;DHT22;3372;48.690;12.362;2022-11-20T07:32:50;7.50;91.60
6672;DHT22;3372;48.690;12.362;2022-11-20T07:35:16;7.60;91.60
6672;DHT22;3372;48.690;12.362;2022-11-20T07:37:42;7.60;91.70
6672;DHT22;3372;48.690;12.362;2022-11-20T07:40:08;7.60;91.00
6672;DHT22;3372;48.690;12.362;2022-11-20T07:42:33;7.40;91.40
6672;DHT22;3372;48.690;12.362;2022-11-20T07:44:59;7.60;91.90
6672;DHT22;3372;48.690;12.362;2022-11-20T07:47:24;7.60;91.80
6672;DHT22;3372;48.690;12.362;2022-11-20T07:49:50;7.50;91.70
6672;DHT22;3372;48.690;12.362;2022-11-20T07:52:16;7.60;91.80
6672;DHT22;3372;48.690;12.362;2022-11-20T07:54:41;7.50;91.80
6672;DHT22;3372;48.690;12.362;2022-11-20T07:57:07;7.70;91.60
6672;DHT22;3372;48.690;12.362;2022-11-20T07:59:32;7.60;91.60
6672;DHT22;3372;48.690;12.362;2022-11-20T08:01:58;7.60;91.40
6672;DHT22;3372;48.690;12.362;2022-11-20T08:04:23;7.30;91.50
6672;DHT22;3372;48.690;12.362;2022-11-20T08:06:49;7.80;91.40
6672;DHT22;3372;48.690;12.362;2022-11-20T08:09:15;7.80;90.80
6672;DHT22;3372;48.690;12.362;2022-11-20T08:11:40;7.80;90.80
6672;DHT22;3372;48.690;12.362;2022-11-20T08:14:24;7.60;91.00
6672;DHT22;3372;48.690;12.362;2022-11-20T08:16:50;7.80;91.20
6672;DHT22;3372;48.690;12.362;2022-11-20T08:19:17;7.80;90.20
6672;DHT22;3372;48.690;12.362;2022-11-20T08:21:43;7.80;90.00
6672;DHT22;3372;48.690;12.362;2022-11-20T08:24:09;8.00;90.90
6672;DHT22;3372;48.690;12.362;2022-11-20T08:26:36;7.80;90.10
6672;DHT22;3372;48.690;12.362;2022-11-20T08:29:02;7.50;90.40
6672;DHT22;3372;48.690;12.362;2022-11-20T08:31:29;7.80;87.90
6672;DHT22;3372;48.690;12.362;2022-11-20T08:33:55;7.70;90.00
6672;DHT22;3372;48.690;12.362;2022-11-20T08:36:22;7.80;90.00
6672;DHT22;3372;48.690;12.362;2022-11-20T08:38:48;7.90;90.00
6672;DHT22;3372;48.690;12.362;2022-11-20T08:41:14;7.90;89.80
6672;DHT22;3372;48.690;12.362;2022-11-20T08:44:07;7.90;89.80
6672;DHT22;3372;48.690;12.362;2022-11-20T08:46:38;8.00;89.90
6672;DHT22;3372;48.690;12.362;2022-11-20T08:49:06;8.00;90.00
6672;DHT22;3372;48.690;12.362;2022-11-20T08:51:32;8.00;88.20
6672;DHT22;3372;48.690;12.362;2022-11-20T08:53:58;7.90;89.00
6672;DHT22;3372;48.690;12.362;2022-11-20T08:56:24;7.90;90.00
6672;DHT22;3372;48.690;12.362;2022-11-20T08:58:52;7.80;88.90
6672;DHT22;3372;48.690;12.362;2022-11-20T09:01:22;7.90;89.20
6672;DHT22;3372;48.690;12.362;2022-11-20T09:03:48;8.00;89.40
6672;DHT22;3372;48.690;12.362;2022-11-20T09:06:15;8.00;88.70
6672;DHT22;3372;48.690;12.362;2022-11-20T09:08:40;8.00;87.70
6672;DHT22;3372;48.690;12.362;2022-11-20T09:11:06;7.90;88.10
6672;DHT22;3372;48.690;12.362;2022-11-20T09:13:34;8.10;89.80
6672;DHT22;3372;48.690;12.362;2022-11-20T09:16:05;8.00;87.80
6672;DHT22;3372;48.690;12.362;2022-11-20T09:18:32;8.10;87.90
6672;DHT22;3372;48.690;12.362;2022-11-20T09:21:02;8.10;87.30
6672;DHT22;3372;48.690;12.362;2022-11-20T09:23:32;8.10;87.80
6672;DHT22;3372;48.690;12.362;2022-11-20T09:26:02;8.00;88.50
6672;DHT22;3372;48.690;12.362;2022-11-20T09:28:28;8.10;88.90
6672;DHT22;3372;48.690;12.362;2022-11-20T09:30:54;8.10;85.90
6672;DHT22;3372;48.690;12.362;2022-11-20T09:33:20;8.10;84.40
6672;DHT22;3372;48.690;12.362;2022-11-20T09:35:45;8.10;86.40
6672;DHT22;3372;48.690;12.362;2022-11-20T09:38:11;8.10;84.90
6672;DHT22;3372;48.690;12.362;2022-11-20T09:40:49;8.20;85.20
6672;DHT22;3372;48.690;12.362;2022-11-20T09:46:17;8.20;85.60
6672;DHT22;3372;48.690;12.362;2022-11-20T09:51:46;8.20;84.20
6672;DHT22;3372;48.690;12.362;2022-11-20T09:54:27;8.30;84.20
6672;DHT22;3372;48.690;12.362;2022-11-20T09:57:09;8.10;84.00
6672;DHT22;3372;48.690;12.362;2022-11-20T09:59:41;8.30;85.10
6672;DHT22;3372;48.690;12.362;2022-11-20T10:02:35;8.30;83.80
6672;DHT22;3372;48.690;12.362;2022-11-20T10:05:27;8.30;80.90
6672;DHT22;3372;48.690;12.362;2022-11-20T10:07:55;8.40;83.10
6672;DHT22;3372;48.690;12.362;2022-11-20T10:10:34;8.50;81.60
6672;DHT22;3372;48.690;12.362;2022-11-20T10:16:07;8.40;82.90
6672;DHT22;3372;48.690;12.362;2022-11-20T10:18:58;8.50;81.40
6672;DHT22;3372;48.690;12.362;2022-11-20T10:22:07;8.50;79.80
6672;DHT22;3372;48.690;12.362;2022-11-20T10:30:46;8.70;80.40
6672;DHT22;3372;48.690;12.362;2022-11-20T10:33:21;8.70;81.70
6672;DHT22;3372;48.690;12.362;2022-11-20T10:39:07;8.80;81.00
6672;DHT22;3372;48.690;12.362;2022-11-20T10:41:41;8.80;79.70
6672;DHT22;3372;48.690;12.362;2022-11-20T10:44:22;8.80;77.70
6672;DHT22;3372;48.690;12.362;2022-11-20T10:47:16;8.80;75.90
6672;DHT22;3372;48.690;12.362;2022-11-20T10:49:44;8.70;78.40
6672;DHT22;3372;48.690;12.362;2022-11-20T10:55:25;8.80;78.60
6672;DHT22;3372;48.690;12.362;2022-11-20T10:58:25;8.90;75.90
6672;DHT22;3372;48.690;12.362;2022-11-20T11:01:16;9.00;78.30
6672;DHT22;3372;48.690;12.362;2022-11-20T11:03:42;8.90;76.50
6672;DHT22;3372;48.690;12.362;2022-11-20T11:09:03;8.90;74.30
6672;DHT22;3372;48.690;12.362;2022-11-20T11:11:32;8.90;74.80
6672;DHT22;3372;48.690;12.362;2022-11-20T11:16:34;8.80;73.50
6672;DHT22;3372;48.690;12.362;2022-11-20T11:19:05;8.90;74.30
6672;DHT22;3372;48.690;12.362;2022-11-20T11:21:31;8.90;73.40
6672;DHT22;3372;48.690;12.362;2022-11-20T11:24:02;8.80;72.00
6672;DHT22;3372;48.690;12.362;2022-11-20T11:26:28;8.80;73.10
6672;DHT22;3372;48.690;12.362;2022-11-20T11:28:59;8.90;73.60
6672;DHT22;3372;48.690;12.362;2022-11-20T11:31:28;8.90;73.10
6672;DHT22;3372;48.690;12.362;2022-11-20T11:34:14;9.00;73.10
6672;DHT22;3372;48.690;12.362;2022-11-20T11:36:40;9.00;71.30
6672;DHT22;3372;48.690;12.362;2022-11-20T11:39:11;8.80;71.90
6672;DHT22;3372;48.690;12.362;2022-11-20T11:41:40;8.90;71.90
6672;DHT22;3372;48.690;12.362;2022-11-20T11:44:17;9.00;71.40
6672;DHT22;3372;48.690;12.362;2022-11-20T11:47:03;9.10;72.80
6672;DHT22;3372;48.690;12.362;2022-11-20T11:49:30;9.00;73.30
6672;DHT22;3372;48.690;12.362;2022-11-20T11:52:11;8.90;71.40
6672;DHT22;3372;48.690;12.362;2022-11-20T12:00:02;8.80;72.50
6672;DHT22;3372;48.690;12.362;2022-11-20T12:02:49;8.90;75.70
6672;DHT22;3372;48.690;12.362;2022-11-20T12:05:39;8.80;71.00
6672;DHT22;3372;48.690;12.362;2022-11-20T12:11:12;9.00;74.80
6672;DHT22;3372;48.690;12.362;2022-11-20T12:16:19;9.10;75.00
6672;DHT22;3372;48.690;12.362;2022-11-20T12:18:48;9.10;74.20
6672;DHT22;3372;48.690;12.362;2022-11-20T12:26:42;9.20;74.20
6672;DHT22;3372;48.690;12.362;2022-11-20T12:32:01;9.00;74.20
6672;DHT22;3372;48.690;12.362;2022-11-20T12:40:35;9.10;73.70
6672;DHT22;3372;48.690;12.362;2022-11-20T12:43:20;9.20;74.30
6672;DHT22;3372;48.690;12.362;2022-11-20T12:49:06;9.10;74.30
6672;DHT22;3372;48.690;12.362;2022-11-20T12:51:39;9.30;74.90
6672;DHT22;3372;48.690;12.362;2022-11-20T12:54:44;9.20;74.40
6672;DHT22;3372;48.690;12.362;2022-11-20T12:57:33;9.10;73.00
6672;DHT22;3372;48.690;12.362;2022-11-20T13:05:40;9.00;73.30
6672;DHT22;3372;48.690;12.362;2022-11-20T13:08:23;9.00;72.40
6672;DHT22;3372;48.690;12.362;2022-11-20T13:19:03;9.10;72.60
6672;DHT22;3372;48.690;12.362;2022-11-20T13:24:06;9.20;72.70
6672;DHT22;3372;48.690;12.362;2022-11-20T13:26:32;9.20;72.30
6672;DHT22;3372;48.690;12.362;2022-11-20T13:29:09;9.10;73.10
6672;DHT22;3372;48.690;12.362;2022-11-20T13:31:39;9.00;72.40
6672;DHT22;3372;48.690;12.362;2022-11-20T13:34:12;9.10;72.70
6672;DHT22;3372;48.690;12.362;2022-11-20T13:36:50;9.20;73.10
6672;DHT22;3372;48.690;12.362;2022-11-20T13:39:34;9.10;72.10
6672;DHT22;3372;48.690;12.362;2022-11-20T13:44:33;9.10;73.50
6672;DHT22;3372;48.690;12.362;2022-11-20T13:47:00;9.10;72.00
6672;DHT22;3372;48.690;12.362;2022-11-20T13:49:32;9.10;71.60
6672;DHT22;3372;48.690;12.362;2022-11-20T14:00:16;9.00;70.00
6672;DHT22;3372;48.690;12.362;2022-11-20T14:02:43;9.00;72.20
6672;DHT22;3372;48.690;12.362;2022-11-20T14:05:23;9.00;70.30
6672;DHT22;3372;48.690;12.362;2022-11-20T14:07:50;9.10;71.00
6672;DHT22;3372;48.690;12.362;2022-11-20T14:10:22;9.00;70.90
6672;DHT22;3372;48.690;12.362;2022-11-20T14:12:48;9.10;71.00
6672;DHT22;3372;48.690;12.362;2022-11-20T14:15:46;9.10;70.80
6672;DHT22;3372;48.690;12.362;2022-11-20T14:18:20;9.20;70.60
6672;DHT22;3372;48.690;12.362;2022-11-20T14:20:47;9.10;70.30
6672;DHT22;3372;48.690;12.362;2022-11-20T14:23:27;9.10;71.20
6672;DHT22;3372;48.690;12.362;2022-11-20T14:25:53;9.20;71.10
6672;DHT22;3372;48.690;12.362;2022-11-20T14:28:28;9.20;71.10
6672;DHT22;3372;48.690;12.362;2022-11-20T14:30:54;9.20;71.60
6672;DHT22;3372;48.690;12.362;2022-11-20T14:33:21;9.10;70.20
6672;DHT22;3372;48.690;12.362;2022-11-20T14:35:54;9.10;69.70
6672;DHT22;3372;48.690;12.362;2022-11-20T14:38:28;9.10;69.80
6672;DHT22;3372;48.690;12.362;2022-11-20T14:41:14;9.00;71.20
6672;DHT22;3372;48.690;12.362;2022-11-20T14:43:56;9.10;71.00
6672;DHT22;3372;48.690;12.362;2022-11-20T14:46:22;9.10;70.50
6672;DHT22;3372;48.690;12.362;2022-11-20T14:48:51;9.10;70.90
6672;DHT22;3372;48.690;12.362;2022-11-20T14:51:36;9.00;71.00
6672;DHT22;3372;48.690;12.362;2022-11-20T14:54:18;8.90;70.80
6672;DHT22;3372;48.690;12.362;2022-11-20T14:57:00;8.90;70.50
6672;DHT22;3372;48.690;12.362;2022-11-20T14:59:31;9.00;71.90
6672;DHT22;3372;48.690;12.362;2022-11-20T15:02:01;8.80;71.10
6672;DHT22;3372;48.690;12.362;2022-11-20T15:04:27;8.90;70.90
6672;DHT22;3372;48.690;12.362;2022-11-20T15:06:55;8.90;71.40
6672;DHT22;3372;48.690;12.362;2022-11-20T15:09:21;8.80;71.30
6672;DHT22;3372;48.690;12.362;2022-11-20T15:12:04;8.90;71.90
6672;DHT22;3372;48.690;12.362;2022-11-20T15:14:30;8.90;70.90
6672;DHT22;3372;48.690;12.362;2022-11-20T15:16:59;8.90;71.00
6672;DHT22;3372;48.690;12.362;2022-11-20T15:19:25;9.00;71.50
6672;DHT22;3372;48.690;12.362;2022-11-20T15:21:52;8.90;71.70
6672;DHT22;3372;48.690;12.362;2022-11-20T15:24:18;8.80;71.60
6672;DHT22;3372;48.690;12.362;2022-11-20T15:26:44;8.90;72.30
6672;DHT22;3372;48.690;12.362;2022-11-20T15:29:11;9.00;72.40
6672;DHT22;3372;48.690;12.362;2022-11-20T15:31:38;8.90;71.60
6672;DHT22;3372;48.690;12.362;2022-11-20T15:34:11;8.90;71.80
6672;DHT22;3372;48.690;12.362;2022-11-20T15:36:39;8.90;71.40
6672;DHT22;3372;48.690;12.362;2022-11-20T15:39:05;8.90;72.40
6672;DHT22;3372;48.690;12.362;2022-11-20T15:41:35;8.90;71.90
6672;DHT22;3372;48.690;12.362;2022-11-20T15:44:02;8.80;72.20
6672;DHT22;3372;48.690;12.362;2022-11-20T15:46:30;8.70;72.60
6672;DHT22;3372;48.690;12.362;2022-11-20T15:48:59;8.80;72.90
6672;DHT22;3372;48.690;12.362;2022-11-20T15:51:34;8.70;71.10
6672;DHT22;3372;48.690;12.362;2022-11-20T15:54:03;8.80;72.90
6672;DHT22;3372;48.690;12.362;2022-11-20T15:56:34;8.80;73.10
6672;DHT22;3372;48.690;12.362;2022-11-20T15:58:59;8.80;72.70
6672;DHT22;3372;48.690;12.362;2022-11-20T16:01:25;8.80;71.60
6672;DHT22;3372;48.690;12.362;2022-11-20T16:03:51;8.80;71.90
6672;DHT22;3372;48.690;12.362;2022-11-20T16:06:16;8.80;72.00
6672;DHT22;3372;48.690;12.362;2022-11-20T16:08:42;8.80;71.10
6672;DHT22;3372;48.690;12.362;2022-11-20T16:11:11;8.80;71.80
6672;DHT22;3372;48.690;12.362;2022-11-20T16:13:37;8.80;71.60
6672;DHT22;3372;48.690;12.362;2022-11-20T16:16:30;8.80;70.80
6672;DHT22;3372;48.690;12.362;2022-11-20T16:18:57;8.70;69.70
6672;DHT22;3372;48.690;12.362;2022-11-20T16:21:22;8.80;70.00
6672;DHT22;3372;48.690;12.362;2022-11-20T16:23:58;8.70;70.00
6672;DHT22;3372;48.690;12.362;2022-11-20T16:26:25;8.70;68.50
6672;DHT22;3372;48.690;12.362;2022-11-20T16:28:50;8.50;67.70
6672;DHT22;3372;48.690;12.362;2022-11-20T16:31:17;8.60;68.80
6672;DHT22;3372;48.690;12.362;2022-11-20T16:33:49;8.70;69.50
6672;DHT22;3372;48.690;12.362;2022-11-20T16:36:16;8.50;69.00
6672;DHT22;3372;48.690;12.362;2022-11-20T16:38:41;8.70;69.10
6672;DHT22;3372;48.690;12.362;2022-11-20T16:41:08;8.50;70.40
6672;DHT22;3372;48.690;12.362;2022-11-20T16:43:53;8.60;70.50
6672;DHT22;3372;48.690;12.362;2022-11-20T16:46:21;8.60;70.30
6672;DHT22;3372;48.690;12.362;2022-11-20T16:48:54;8.70;70.00
6672;DHT22;3372;48.690;12.362;2022-11-20T16:51:21;8.60;70.40
6672;DHT22;3372;48.690;12.362;2022-11-20T16:53:47;8.60;69.50
6672;DHT22;3372;48.690;12.362;2022-11-20T16:56:17;8.60;70.60
6672;DHT22;3372;48.690;12.362;2022-11-20T16:58:44;8.60;70.60
6672;DHT22;3372;48.690;12.362;2022-11-20T17:01:12;8.70;70.60
6672;DHT22;3372;48.690;12.362;2022-11-20T17:03:40;8.60;70.40
6672;DHT22;3372;48.690;12.362;2022-11-20T17:06:17;8.70;70.60
6672;DHT22;3372;48.690;12.362;2022-11-20T17:08:44;8.60;69.80
6672;DHT22;3372;48.690;12.362;2022-11-20T17:11:13;8.60;71.40
6672;DHT22;3372;48.690;12.362;2022-11-20T17:13:40;8.70;70.90
6672;DHT22;3372;48.690;12.362;2022-11-20T17:16:14;8.60;71.40
6672;DHT22;3372;48.690;12.362;2022-11-20T17:18:40;8.60;70.60
6672;DHT22;3372;48.690;12.362;2022-11-20T17:21:06;8.60;68.10
6672;DHT22;3372;48.690;12.362;2022-11-20T17:23:33;8.60;67.40
6672;DHT22;3372;48.690;12.362;2022-11-20T17:26:01;8.50;66.60
6672;DHT22;3372;48.690;12.362;2022-11-20T17:28:27;8.60;66.80
6672;DHT22;3372;48.690;12.362;2022-11-20T17:30:57;8.50;65.80
6672;DHT22;3372;48.690;12.362;2022-11-20T17:33:23;8.50;64.50
6672;DHT22;3372;48.690;12.362;2022-11-20T17:35:48;8.50;64.50
6672;DHT22;3372;48.690;12.362;2022-11-20T17:38:14;8.50;65.20
6672;DHT22;3372;48.690;12.362;2022-11-20T17:40:40;8.50;64.30